Аэропорт: Магнитогорск. Магнитогорск

ICAO: USCM

METAR:
2018/11/21 18:30
USCM 211830Z 23007MPS 9999 -SHSN BKN013CB M05/M09 Q0997 R18/090060 TEMPO 27012MPS RMK QFE710
METAR:
Информация по данной станции не доступна